< < Back
Terminal Aerodrome Forecast


Current Version              Previous Versions:   1  2  3  4  5  6  7  8  9  

Terminal Aerodrome Forecast

244
FTUS42 KILM 222300
TAFILM
TAF
KILM 222323Z 2300/2324 VRB05KT P6SM VCTS SCT050CB BKN100
     FM230300 23003KT P6SM SCT150
     FM231200 34005KT P6SM FEW020 BKN200
     FM231800 06006KT P6SM VCSH SCT040 BKN150=

Latest METAR

583
SAUS70 KWBC 212300 RRV
MTRILM
METAR KILM 222253Z 04006G23KT 1SM +RA SCT033 OVC055 27/22 A2994 RMK AO2
RAB33 SLP137 P0018 T02720217


USA.gov is the U.S. government's official web portal to all federal, state and local government web resources and services.